• Join FlightAware (Why Join?)
  • Login
  • US Flag 
02:05PM EDT


 

Airport Tracker/Info


-or-


 

Live Flight TrackerFlight Track Log ✈ N23139 ✈ 28-Apr-2013 ✈ KMFE - KIAH

Flight Track Log - Related Links

Times and Time Zones

All times are in EDT time to prevent confusion due to time zone crossing. See the N23139 flight status page for this flight to view local times or setup timezone preferences in your user account.

Time Position Orientation Groundspeed Altitude Reporting Facility
EDT Latitude Longitude Course Direction KTS MPH feet Rate Location/Type
02:14PM 26.1894 -98.2528 24° Northeast 130 150 700  Level Houston Center
02:15PM 26.2161 -98.2472 11° North 147 169 2,300 2,040 Climbing Houston Center
02:16PM 26.2378 -98.2214 47° Northeast 176 203 3,600 2,160 Climbing Houston Center
02:16PM 26.2592 -98.2158 13° North 208 239 4,500 1,980 Climbing Houston Center
02:17PM 26.2975 -98.2328 338° Northwest 235 270 5,700 2,340 Climbing Houston Center
02:17PM 26.3264 -98.2539 327° Northwest 271 312 6,900 2,400 Climbing Houston Center
02:18PM 26.4231 -98.1134 24° Northeast  Level FlightAware Approximate
02:18PM 26.3681 -98.2778 333° Northwest 268 308 8,200  Level Houston Center
02:19PM 26.4866 -98.0817 24° Northeast  Level FlightAware Approximate
02:19PM 26.4531 -98.2675 North 299 344 10,800  Level Houston Center
02:20PM 26.5436 -98.2522 North 321 369 12,600 1,740 Climbing Houston Center
02:21PM 26.6525 -98.2300 10° North 358 412 14,400 1,800 Climbing Houston Center
02:22PM 26.7547 -98.1950 17° North 378 435 16,400 1,800 Climbing Houston Center
02:23PM 26.8483 -98.1347 30° Northeast 383 441 18,200 1,680 Climbing Houston Center
02:24PM 26.9317 -98.0803 30° Northeast 387 445 19,900 1,800 Climbing Houston Center
02:25PM 27.0411 -98.0044 32° Northeast 388 447 22,000 1,680 Climbing Houston Center
02:26PM 27.1350 -97.9361 33° Northeast 400 460 23,500 1,380 Climbing Houston Center
02:27PM 27.2303 -97.8686 32° Northeast 406 467 24,900 720 Climbing Houston Center
02:28PM 27.3297 -97.7964 33° Northeast 422 486 25,000  Climbing Houston Center
02:29PM 27.4394 -97.7189 32° Northeast 461 531 25,000 -60 Level Houston Center
02:30PM 27.5742 -97.6219 33° Northeast 478 550 24,900  Descending Houston Center
02:31PM 27.6789 -97.5453 33° Northeast 454 522 25,000  Climbing Houston Center
02:32PM 27.7828 -97.4700 33° Northeast 446 513 25,000  Level Houston Center
02:33PM 27.8925 -97.3922 32° Northeast 460 529 25,000  Level Houston Center
02:34PM 28.0161 -97.3028 33° Northeast 467 537 25,000  Level Houston Center
02:35PM 28.1269 -97.2217 33° Northeast 473 544 25,000  Level Houston Center
02:36PM 28.2386 -97.1389 33° Northeast 478 550 25,000  Level Houston Center
02:37PM 28.3508 -97.0569 33° Northeast 481 554 25,000 -300 Level Houston Center
02:38PM 28.4619 -96.9758 33° Northeast 475 547 24,400 -480 Descending Houston Center
02:39PM 28.5831 -96.8875 33° Northeast 441 507 24,000 -240 Descending Houston Center
02:40PM 28.6858 -96.8103 33° Northeast 440 506 24,000  Level Houston Center
02:41PM 28.7861 -96.7364 33° Northeast 435 501 24,000  Level Houston Center
02:43PM 28.8858 -96.6617 33° Northeast 432 497 24,000 -480 Level Houston Center
02:44PM 28.9856 -96.5878 33° Northeast 430 495 23,100 -1,380 Descending Houston Center
02:45PM 29.0992 -96.5019 33° Northeast 416 479 21,200 -2,100 Descending Houston Center
02:46PM 29.1856 -96.4378 33° Northeast 384 442 18,800 -2,460 Descending Houston Center
02:46PM 29.2539 -96.3883 32° Northeast 373 429 16,900 -2,340 Descending Houston Center
02:47PM 29.2714 -96.3736 36° Northeast 374 430 16,400 -2,520 Descending Houston Center
02:47PM 29.3447 -96.3208 32° Northeast 360 414 14,300 -2,460 Descending Houston Center
02:48PM 29.3544 -96.3119 39° Northeast 362 417 13,900 -2,460 Descending Houston Center
02:48PM 29.4256 -96.2592 33° Northeast 347 399 11,800 -2,340 Descending Houston Center
02:49PM 29.4344 -96.2519 35° Northeast 349 402 11,500 -1,680 Descending Houston Center
02:49PM 29.5044 -96.2000 33° Northeast 339 390 10,100 -1,500 Descending Houston Center
02:50PM 29.5292 -96.1789 37° Northeast 343 395 10,000 -360 Descending Houston Center
02:51PM 29.5725 -96.1133 53° Northeast 305 351 9,700 -600 Descending Houston Center
02:52PM 29.6119 -96.0344 60° Northeast 274 315 9,000 -600 Descending Houston Center
02:52PM 29.6183 -96.0233 57° Northeast 280 322 9,000 -1,200 Level Houston Center
02:53PM 29.6517 -95.9603 59° Northeast 264 304 7,800 -1,260 Descending Houston Center
02:53PM 29.6547 -95.9539 61° Northeast 269 310 7,700 -780 Descending Houston Center
02:54PM 29.7111 -95.9219 26° Northeast 264 304 7,100 -720 Descending Houston Center
02:54PM 29.7333 -95.9072 30° Northeast 262 302 7,000  Descending Houston Center
02:55PM 29.7719 -95.8742 37° Northeast 269 310 7,100  Climbing Houston Center
02:55PM 29.7942 -95.8575 33° Northeast 267 307 7,000 -120 Descending Houston Center
02:56PM 29.8367 -95.8211 37° Northeast 271 312 7,000 -420 Level Houston Center
02:56PM 29.8536 -95.8028 43° Northeast 271 312 6,600 -1,200 Descending Houston Center
02:57PM 29.8900 -95.7594 46° Northeast 274 315 5,800 -1,200 Descending Houston Center
02:57PM 29.9067 -95.7394 46° Northeast 274 315 5,400 -1,080 Descending Houston Center
02:58PM 29.9339 -95.6869 59° Northeast 277 319 4,700 -1,020 Descending Houston Center
02:58PM 29.9458 -95.6636 59° Northeast 276 318 4,400 -1,020 Descending Houston Center
02:59PM 29.9689 -95.6081 64° Northeast 271 312 3,700 -1,020 Descending Houston Center
02:59PM 29.9792 -95.5856 62° Northeast 272 313 3,400 -720 Descending Houston Center
03:00PM 29.9931 -95.5256 75° East 252 290 3,000 -720 Descending Houston Center